EIN1AC EINN-KBOS
Flight info
| Callsign | EIN1AC |
|---|---|
| Flight time | N/A |
| Altitude | 34000 |
| Route | UNBEG3A UNBEG DCT LUPOR DCT LONDU DCT RILED DCT TOBOR/M079F350 NATG OMSAT/N0450F360 N226B TUSKY DCT EURRO OOSHN5 |
| Aircraft | A21N/M-SDE2E3FGHIRWXY/LB1 |
Departure
| Time | 2026-05-08 14:02 |
|---|---|
| Airport | Shannon Airport (EINN) |
Arrival
| Time | N/A |
|---|---|
| Airport | Boston Logan International Airport (KBOS) |
| Time | Latitude | Longitude | Altitude | Speed | Heading |
|---|---|---|---|---|---|
| 2026-05-08 13:45 | 52.69386 | -8.92408 | 18 ft | 0 kts | 185° |
| 2026-05-08 13:50 | 52.69395 | -8.92406 | 18 ft | 2 kts | 185° |
| 2026-05-08 13:50 | 52.69410 | -8.92404 | 18 ft | 2 kts | 185° |
| 2026-05-08 13:50 | 52.69425 | -8.92402 | 18 ft | 2 kts | 185° |
| 2026-05-08 13:51 | 52.69440 | -8.92400 | 18 ft | 2 kts | 185° |
| 2026-05-08 13:51 | 52.69455 | -8.92397 | 18 ft | 2 kts | 185° |
| 2026-05-08 13:51 | 52.69469 | -8.92404 | 18 ft | 2 kts | 138° |
| 2026-05-08 13:51 | 52.69477 | -8.92425 | 18 ft | 2 kts | 100° |
| 2026-05-08 13:52 | 52.69478 | -8.92450 | 18 ft | 2 kts | 95° |
| 2026-05-08 13:52 | 52.69480 | -8.92474 | 19 ft | 2 kts | 98° |
| 2026-05-08 13:52 | 52.69482 | -8.92494 | 19 ft | 0 kts | 96° |
| 2026-05-08 13:52 | 52.69482 | -8.92500 | 19 ft | 0 kts | 95° |
| 2026-05-08 13:56 | 52.69482 | -8.92495 | 19 ft | 1 kts | 95° |
| 2026-05-08 13:56 | 52.69480 | -8.92463 | 18 ft | 4 kts | 95° |
| 2026-05-08 13:56 | 52.69475 | -8.92385 | 18 ft | 11 kts | 95° |
| 2026-05-08 13:56 | 52.69521 | -8.92324 | 18 ft | 11 kts | 325° |
| 2026-05-08 13:57 | 52.69576 | -8.92417 | 18 ft | 11 kts | 313° |
| 2026-05-08 13:57 | 52.69630 | -8.92506 | 19 ft | 10 kts | 315° |
| 2026-05-08 13:57 | 52.69687 | -8.92598 | 20 ft | 12 kts | 316° |
| 2026-05-08 13:57 | 52.69755 | -8.92705 | 21 ft | 14 kts | 315° |
| 2026-05-08 13:58 | 52.69825 | -8.92821 | 22 ft | 13 kts | 315° |
| 2026-05-08 13:58 | 52.69891 | -8.92929 | 23 ft | 13 kts | 315° |
| 2026-05-08 13:58 | 52.69920 | -8.93051 | 23 ft | 11 kts | 250° |
| 2026-05-08 13:58 | 52.69860 | -8.93201 | 25 ft | 20 kts | 232° |
| 2026-05-08 13:59 | 52.69756 | -8.93424 | 29 ft | 28 kts | 232° |
| 2026-05-08 13:59 | 52.69635 | -8.93675 | 34 ft | 26 kts | 232° |
| 2026-05-08 13:59 | 52.69532 | -8.93896 | 39 ft | 22 kts | 232° |
| 2026-05-08 13:59 | 52.69443 | -8.94083 | 43 ft | 19 kts | 231° |
| 2026-05-08 14:00 | 52.69360 | -8.94235 | 45 ft | 12 kts | 220° |
| 2026-05-08 14:00 | 52.69319 | -8.94262 | 46 ft | 4 kts | 256° |
| 2026-05-08 14:00 | 52.69340 | -8.94289 | 46 ft | 4 kts | 13° |
| 2026-05-08 14:00 | 52.69351 | -8.94275 | 46 ft | 1 kts | 49° |
| 2026-05-08 14:01 | 52.69357 | -8.94264 | 46 ft | 0 kts | 49° |
| 2026-05-08 14:01 | 52.69366 | -8.94247 | 46 ft | 3 kts | 51° |
| 2026-05-08 14:01 | 52.69500 | -8.93960 | 40 ft | 67 kts | 52° |
| 2026-05-08 14:01 | 52.69923 | -8.93066 | 24 ft | 130 kts | 52° |
| 2026-05-08 14:02 | 52.70586 | -8.91659 | 36 ft | 178 kts | 52° |
| 2026-05-08 14:02 | 52.71349 | -8.90013 | 580 ft | 181 kts | 53° |
| 2026-05-08 14:02 | 52.72228 | -8.88605 | 1284 ft | 181 kts | 24° |
| 2026-05-08 14:02 | 52.73458 | -8.88476 | 2004 ft | 182 kts | 353° |
| 2026-05-08 14:03 | 52.74581 | -8.88886 | 2576 ft | 183 kts | 350° |
| 2026-05-08 14:03 | 52.75825 | -8.89331 | 3127 ft | 186 kts | 352° |
| 2026-05-08 14:03 | 52.77097 | -8.89708 | 3693 ft | 187 kts | 353° |
| 2026-05-08 14:03 | 52.78399 | -8.90036 | 4256 ft | 190 kts | 354° |
| 2026-05-08 14:04 | 52.79697 | -8.90339 | 4755 ft | 192 kts | 352° |
| 2026-05-08 14:04 | 52.80918 | -8.91265 | 4995 ft | 202 kts | 315° |
| 2026-05-08 14:04 | 52.81546 | -8.93338 | 5408 ft | 213 kts | 278° |
| 2026-05-08 14:04 | 52.81538 | -8.95904 | 5755 ft | 229 kts | 268° |
| 2026-05-08 14:05 | 52.81473 | -8.98643 | 6024 ft | 250 kts | 268° |
| 2026-05-08 14:05 | 52.81423 | -9.01608 | 6384 ft | 267 kts | 269° |
| 2026-05-08 14:05 | 52.81381 | -9.04698 | 6913 ft | 278 kts | 269° |
| 2026-05-08 14:05 | 52.81342 | -9.07911 | 7651 ft | 280 kts | 269° |
| 2026-05-08 14:06 | 52.81307 | -9.11092 | 8382 ft | 282 kts | 269° |
| 2026-05-08 14:06 | 52.81271 | -9.14332 | 9092 ft | 284 kts | 268° |
| 2026-05-08 14:06 | 52.81235 | -9.17628 | 9782 ft | 287 kts | 268° |
| 2026-05-08 14:06 | 52.81198 | -9.20895 | 10482 ft | 289 kts | 268° |
| 2026-05-08 14:07 | 52.81161 | -9.24234 | 11128 ft | 291 kts | 268° |
| 2026-05-08 14:07 | 52.81123 | -9.27569 | 11748 ft | 294 kts | 268° |
| 2026-05-08 14:07 | 52.81081 | -9.30946 | 12415 ft | 296 kts | 268° |
| 2026-05-08 14:07 | 52.81039 | -9.34353 | 13049 ft | 298 kts | 268° |
| 2026-05-08 14:08 | 52.80996 | -9.37777 | 13648 ft | 300 kts | 268° |
| 2026-05-08 14:08 | 52.80953 | -9.41219 | 14248 ft | 302 kts | 268° |
| 2026-05-08 14:08 | 52.80909 | -9.44686 | 14858 ft | 304 kts | 268° |
| 2026-05-08 14:08 | 52.80862 | -9.48183 | 15443 ft | 306 kts | 267° |
| 2026-05-08 14:09 | 52.80814 | -9.51713 | 16020 ft | 308 kts | 267° |
| 2026-05-08 14:09 | 52.80768 | -9.55010 | 16538 ft | 310 kts | 267° |
| 2026-05-08 14:09 | 52.80716 | -9.58585 | 17084 ft | 312 kts | 267° |
| 2026-05-08 14:09 | 52.80664 | -9.62184 | 17630 ft | 314 kts | 267° |
| 2026-05-08 14:10 | 52.80441 | -9.65742 | 18118 ft | 314 kts | 250° |
| 2026-05-08 14:10 | 52.79442 | -9.68895 | 18586 ft | 312 kts | 228° |
| 2026-05-08 14:10 | 52.77792 | -9.71192 | 19055 ft | 313 kts | 208° |
| 2026-05-08 14:10 | 52.75685 | -9.72359 | 19261 ft | 324 kts | 187° |
| 2026-05-08 14:11 | 52.73415 | -9.72292 | 19490 ft | 336 kts | 177° |
| 2026-05-08 14:11 | 52.71050 | -9.72001 | 19689 ft | 346 kts | 177° |
| 2026-05-08 14:11 | 52.68601 | -9.71721 | 19892 ft | 357 kts | 177° |
| 2026-05-08 14:11 | 52.66074 | -9.71448 | 20085 ft | 367 kts | 177° |
| 2026-05-08 14:12 | 52.63525 | -9.71176 | 20305 ft | 376 kts | 177° |
| 2026-05-08 14:12 | 52.60902 | -9.71384 | 20653 ft | 378 kts | 193° |
| 2026-05-08 14:12 | 52.58471 | -9.72945 | 21092 ft | 378 kts | 211° |
| 2026-05-08 14:12 | 52.56464 | -9.75641 | 21572 ft | 379 kts | 227° |
| 2026-05-08 14:13 | 52.55025 | -9.79274 | 21995 ft | 384 kts | 244° |
| 2026-05-08 14:13 | 52.54336 | -9.83529 | 22392 ft | 392 kts | 262° |
| 2026-05-08 14:13 | 52.54315 | -9.88033 | 22842 ft | 395 kts | 268° |
| 2026-05-08 14:13 | 52.54356 | -9.92480 | 23239 ft | 396 kts | 268° |
| 2026-05-08 14:14 | 52.54388 | -9.97024 | 23606 ft | 399 kts | 267° |
| 2026-05-08 14:14 | 52.54417 | -10.01592 | 24009 ft | 400 kts | 267° |
| 2026-05-08 14:14 | 52.54443 | -10.06120 | 24380 ft | 402 kts | 267° |
| 2026-05-08 14:14 | 52.54467 | -10.10724 | 24754 ft | 403 kts | 266° |
| 2026-05-08 14:15 | 52.54489 | -10.15330 | 25128 ft | 405 kts | 266° |
| 2026-05-08 14:15 | 52.54510 | -10.19934 | 25484 ft | 406 kts | 266° |
| 2026-05-08 14:15 | 52.54527 | -10.24529 | 25818 ft | 407 kts | 266° |
| 2026-05-08 14:15 | 52.54544 | -10.29217 | 26162 ft | 409 kts | 266° |
| 2026-05-08 14:16 | 52.54558 | -10.33898 | 26493 ft | 410 kts | 266° |
| 2026-05-08 14:16 | 52.54571 | -10.38538 | 26801 ft | 411 kts | 266° |
| 2026-05-08 14:16 | 52.54582 | -10.43238 | 27132 ft | 412 kts | 266° |
| 2026-05-08 14:16 | 52.54592 | -10.47945 | 27431 ft | 412 kts | 266° |
| 2026-05-08 14:17 | 52.54598 | -10.52671 | 27710 ft | 414 kts | 266° |
| 2026-05-08 14:17 | 52.54604 | -10.57395 | 27980 ft | 415 kts | 266° |
| 2026-05-08 14:17 | 52.54607 | -10.62126 | 28273 ft | 415 kts | 266° |
| 2026-05-08 14:17 | 52.54609 | -10.66884 | 28546 ft | 416 kts | 265° |
| 2026-05-08 14:18 | 52.54608 | -10.71654 | 28686 ft | 420 kts | 265° |
| 2026-05-08 14:18 | 52.54604 | -10.76451 | 28802 ft | 424 kts | 265° |
| 2026-05-08 14:18 | 52.54599 | -10.81285 | 28900 ft | 429 kts | 265° |
| 2026-05-08 14:18 | 52.54592 | -10.86199 | 29066 ft | 431 kts | 265° |
| 2026-05-08 14:19 | 52.54586 | -10.91108 | 29333 ft | 431 kts | 265° |
| 2026-05-08 14:19 | 52.54578 | -10.96035 | 29627 ft | 429 kts | 265° |
| 2026-05-08 14:19 | 52.54566 | -11.00969 | 29929 ft | 428 kts | 265° |
| 2026-05-08 14:19 | 52.54553 | -11.05766 | 30215 ft | 427 kts | 265° |
| 2026-05-08 14:20 | 52.54539 | -11.10485 | 30505 ft | 425 kts | 265° |
| 2026-05-08 14:20 | 52.54521 | -11.15345 | 30822 ft | 423 kts | 264° |
| 2026-05-08 14:20 | 52.54501 | -11.20099 | 31111 ft | 421 kts | 264° |
| 2026-05-08 14:20 | 52.54480 | -11.24930 | 31395 ft | 420 kts | 264° |
| 2026-05-08 14:21 | 52.54457 | -11.29706 | 31675 ft | 418 kts | 264° |
| 2026-05-08 14:21 | 52.54432 | -11.34484 | 31913 ft | 418 kts | 264° |
| 2026-05-08 14:21 | 52.54404 | -11.39239 | 32118 ft | 418 kts | 264° |
| 2026-05-08 14:21 | 52.54375 | -11.44003 | 32349 ft | 416 kts | 264° |
| 2026-05-08 14:22 | 52.54343 | -11.48766 | 32610 ft | 415 kts | 264° |
| 2026-05-08 14:22 | 52.54312 | -11.53509 | 32854 ft | 413 kts | 264° |
| 2026-05-08 14:22 | 52.54277 | -11.58192 | 33122 ft | 411 kts | 263° |
| 2026-05-08 14:22 | 52.54241 | -11.62870 | 33349 ft | 409 kts | 263° |
| 2026-05-08 14:23 | 52.54203 | -11.67529 | 33531 ft | 408 kts | 263° |
| 2026-05-08 14:23 | 52.54165 | -11.71843 | 33692 ft | 408 kts | 263° |
| 2026-05-08 14:23 | 52.54123 | -11.76522 | 33884 ft | 407 kts | 263° |
| 2026-05-08 14:23 | 52.54080 | -11.81168 | 34084 ft | 405 kts | 263° |
| 2026-05-08 14:24 | 52.54037 | -11.85811 | 34293 ft | 404 kts | 262° |
| 2026-05-08 14:24 | 52.53990 | -11.90450 | 34430 ft | 404 kts | 262° |
| 2026-05-08 14:24 | 52.53941 | -11.95069 | 34538 ft | 404 kts | 262° |
| 2026-05-08 14:24 | 52.53891 | -11.99696 | 34695 ft | 403 kts | 262° |
| 2026-05-08 14:25 | 52.53840 | -12.04269 | 34827 ft | 402 kts | 262° |
| 2026-05-08 14:25 | 52.53727 | -12.13460 | 35003 ft | 402 kts | 262° |
| 2026-05-08 14:26 | 52.53613 | -12.22642 | 35070 ft | 403 kts | 262° |
| 2026-05-08 14:26 | 52.53488 | -12.31876 | 35075 ft | 403 kts | 262° |
| 2026-05-08 14:27 | 52.53359 | -12.41050 | 35078 ft | 403 kts | 262° |
| 2026-05-08 14:27 | 52.53223 | -12.50276 | 35078 ft | 404 kts | 262° |
| 2026-05-08 14:28 | 52.53078 | -12.59454 | 35082 ft | 404 kts | 262° |
| 2026-05-08 14:28 | 52.52925 | -12.68699 | 35088 ft | 403 kts | 262° |
| 2026-05-08 14:29 | 52.52766 | -12.77903 | 35087 ft | 403 kts | 262° |
| 2026-05-08 14:29 | 52.52604 | -12.86923 | 35089 ft | 404 kts | 262° |
| 2026-05-08 14:30 | 52.52432 | -12.96118 | 35089 ft | 405 kts | 262° |
| 2026-05-08 14:30 | 52.52251 | -13.05416 | 35089 ft | 405 kts | 262° |
| 2026-05-08 14:31 | 52.52065 | -13.14660 | 35089 ft | 405 kts | 261° |
| 2026-05-08 14:31 | 52.51867 | -13.23882 | 35087 ft | 404 kts | 262° |
| 2026-05-08 14:32 | 52.51563 | -13.37749 | 35090 ft | 405 kts | 261° |
| 2026-05-08 14:32 | 52.51347 | -13.47031 | 35091 ft | 406 kts | 261° |
| 2026-05-08 14:33 | 52.51127 | -13.56284 | 35092 ft | 407 kts | 261° |
| 2026-05-08 14:33 | 52.50901 | -13.65502 | 35095 ft | 407 kts | 261° |
| 2026-05-08 14:34 | 52.50668 | -13.74645 | 35089 ft | 406 kts | 261° |
| 2026-05-08 14:34 | 52.50428 | -13.83911 | 35095 ft | 407 kts | 261° |
| 2026-05-08 14:35 | 52.50175 | -13.93219 | 35085 ft | 407 kts | 261° |
| 2026-05-08 14:35 | 52.50001 | -14.02550 | 35086 ft | 410 kts | 263° |
| 2026-05-08 14:36 | 52.50028 | -14.11936 | 35102 ft | 411 kts | 263° |
| 2026-05-08 14:36 | 52.50056 | -14.21364 | 35091 ft | 413 kts | 263° |
| 2026-05-08 14:37 | 52.50075 | -14.30844 | 35098 ft | 413 kts | 264° |
| 2026-05-08 14:37 | 52.50087 | -14.40255 | 35099 ft | 413 kts | 264° |
| 2026-05-08 14:38 | 52.50091 | -14.49710 | 35100 ft | 413 kts | 264° |
| 2026-05-08 14:38 | 52.50091 | -14.59093 | 35101 ft | 413 kts | 264° |
| 2026-05-08 14:39 | 52.50078 | -14.68568 | 35142 ft | 413 kts | 263° |
| 2026-05-08 14:39 | 52.50063 | -14.77934 | 35116 ft | 412 kts | 263° |
| 2026-05-08 14:40 | 52.50036 | -14.87453 | 35111 ft | 413 kts | 263° |
| 2026-05-08 14:40 | 52.49980 | -14.96834 | 35108 ft | 413 kts | 261° |
| 2026-05-08 14:41 | 52.49497 | -15.06122 | 35105 ft | 409 kts | 256° |
| 2026-05-08 14:41 | 52.48769 | -15.15352 | 35104 ft | 410 kts | 257° |
| 2026-05-08 14:42 | 52.48026 | -15.24697 | 35103 ft | 410 kts | 257° |
| 2026-05-08 14:42 | 52.47281 | -15.33946 | 35099 ft | 411 kts | 257° |
| 2026-05-08 14:43 | 52.46543 | -15.43016 | 35096 ft | 413 kts | 257° |
| 2026-05-08 14:43 | 52.45774 | -15.52410 | 35098 ft | 413 kts | 257° |
| 2026-05-08 14:44 | 52.45001 | -15.61717 | 35096 ft | 414 kts | 257° |
| 2026-05-08 14:44 | 52.44221 | -15.71030 | 35097 ft | 414 kts | 257° |
| 2026-05-08 14:45 | 52.43434 | -15.80354 | 35096 ft | 415 kts | 257° |
| 2026-05-08 14:45 | 52.42633 | -15.89753 | 35096 ft | 416 kts | 257° |
| 2026-05-08 14:46 | 52.41825 | -15.99128 | 35097 ft | 417 kts | 257° |
| 2026-05-08 14:46 | 52.41002 | -16.08597 | 35092 ft | 417 kts | 257° |
| 2026-05-08 14:47 | 52.40173 | -16.18029 | 35097 ft | 419 kts | 257° |
| 2026-05-08 14:47 | 52.39343 | -16.27410 | 35086 ft | 419 kts | 257° |
| 2026-05-08 14:48 | 52.38497 | -16.36865 | 35096 ft | 419 kts | 257° |
| 2026-05-08 14:48 | 52.37641 | -16.46332 | 35109 ft | 420 kts | 257° |
| 2026-05-08 14:49 | 52.36776 | -16.55820 | 35101 ft | 421 kts | 257° |
| 2026-05-08 14:49 | 52.35906 | -16.65289 | 35096 ft | 421 kts | 257° |
| 2026-05-08 14:50 | 52.35019 | -16.74831 | 35103 ft | 423 kts | 257° |
| 2026-05-08 14:50 | 52.34154 | -16.84080 | 35085 ft | 423 kts | 257° |
| 2026-05-08 14:51 | 52.33245 | -16.93688 | 35106 ft | 423 kts | 257° |
| 2026-05-08 14:51 | 52.32332 | -17.03277 | 35097 ft | 424 kts | 257° |
| 2026-05-08 14:52 | 52.30951 | -17.17615 | 35114 ft | 424 kts | 257° |
| 2026-05-08 14:53 | 52.30021 | -17.27153 | 35096 ft | 425 kts | 257° |
| 2026-05-08 14:53 | 52.29079 | -17.36733 | 35110 ft | 426 kts | 258° |
| 2026-05-08 14:54 | 52.28189 | -17.45707 | 35109 ft | 427 kts | 258° |
| 2026-05-08 14:54 | 52.27230 | -17.55301 | 35110 ft | 428 kts | 258° |
| 2026-05-08 14:55 | 52.26257 | -17.64964 | 35112 ft | 429 kts | 258° |
| 2026-05-08 14:55 | 52.25277 | -17.74577 | 35114 ft | 430 kts | 257° |
| 2026-05-08 14:56 | 52.24288 | -17.84239 | 35122 ft | 430 kts | 257° |
| 2026-05-08 14:56 | 52.23298 | -17.93826 | 35117 ft | 431 kts | 258° |
| 2026-05-08 14:57 | 52.22294 | -18.03435 | 35122 ft | 431 kts | 258° |
| 2026-05-08 14:57 | 52.21277 | -18.13109 | 35123 ft | 431 kts | 258° |
| 2026-05-08 14:58 | 52.20252 | -18.22765 | 35119 ft | 432 kts | 258° |
| 2026-05-08 14:58 | 52.19214 | -18.32468 | 35128 ft | 434 kts | 258° |
| 2026-05-08 14:59 | 52.18167 | -18.42194 | 35130 ft | 435 kts | 258° |
| 2026-05-08 14:59 | 52.16581 | -18.56782 | 35127 ft | 436 kts | 258° |
| 2026-05-08 15:00 | 52.15506 | -18.66567 | 35128 ft | 437 kts | 258° |
| 2026-05-08 15:00 | 52.14426 | -18.76310 | 35132 ft | 438 kts | 258° |
| 2026-05-08 15:01 | 52.13341 | -18.86039 | 35136 ft | 437 kts | 258° |
| 2026-05-08 15:01 | 52.12242 | -18.95803 | 35140 ft | 439 kts | 258° |
| 2026-05-08 15:02 | 52.11142 | -19.05486 | 35135 ft | 439 kts | 258° |
| 2026-05-08 15:02 | 52.10015 | -19.15336 | 35141 ft | 440 kts | 258° |
| 2026-05-08 15:03 | 52.08889 | -19.25101 | 35141 ft | 440 kts | 258° |
| 2026-05-08 15:03 | 52.07760 | -19.34830 | 35139 ft | 440 kts | 259° |
| 2026-05-08 15:04 | 52.06617 | -19.44603 | 35153 ft | 441 kts | 259° |
| 2026-05-08 15:04 | 52.05468 | -19.54362 | 35157 ft | 442 kts | 259° |
| 2026-05-08 15:05 | 52.04310 | -19.64128 | 35145 ft | 442 kts | 259° |
| 2026-05-08 15:05 | 52.03142 | -19.73889 | 35144 ft | 444 kts | 258° |
| 2026-05-08 15:06 | 52.01960 | -19.83707 | 35149 ft | 444 kts | 258° |
| 2026-05-08 15:06 | 52.00863 | -19.93551 | 35148 ft | 446 kts | 262° |
| 2026-05-08 15:07 | 52.00351 | -20.03489 | 35145 ft | 447 kts | 269° |
| 2026-05-08 15:07 | 52.00507 | -20.13519 | 35142 ft | 447 kts | 274° |
| 2026-05-08 15:08 | 52.00852 | -20.21903 | 35136 ft | 446 kts | 274° |
| 2026-05-08 15:08 | 52.01333 | -20.33634 | 35141 ft | 446 kts | 274° |
| 2026-05-08 15:09 | 52.01726 | -20.43622 | 35143 ft | 446 kts | 275° |
| 2026-05-08 15:09 | 52.02111 | -20.53643 | 35142 ft | 446 kts | 275° |
| 2026-05-08 15:10 | 52.02491 | -20.63734 | 35147 ft | 447 kts | 275° |
| 2026-05-08 15:10 | 52.02861 | -20.73876 | 35148 ft | 449 kts | 275° |
| 2026-05-08 15:11 | 52.03224 | -20.83984 | 35152 ft | 451 kts | 275° |
| 2026-05-08 15:11 | 52.03578 | -20.94117 | 35155 ft | 453 kts | 275° |
| 2026-05-08 15:12 | 52.03928 | -21.04400 | 35157 ft | 454 kts | 275° |
| 2026-05-08 15:12 | 52.04267 | -21.14670 | 35169 ft | 454 kts | 275° |
| 2026-05-08 15:13 | 52.04597 | -21.24911 | 35170 ft | 453 kts | 275° |
| 2026-05-08 15:13 | 52.04920 | -21.35180 | 35171 ft | 453 kts | 275° |
| 2026-05-08 15:14 | 52.05232 | -21.45418 | 35173 ft | 454 kts | 275° |
| 2026-05-08 15:14 | 52.05536 | -21.55712 | 35178 ft | 455 kts | 276° |
| 2026-05-08 15:15 | 52.05835 | -21.66035 | 35176 ft | 455 kts | 275° |
| 2026-05-08 15:15 | 52.06125 | -21.76426 | 35187 ft | 455 kts | 275° |
| 2026-05-08 15:16 | 52.06408 | -21.86867 | 35192 ft | 455 kts | 275° |
| 2026-05-08 15:16 | 52.06678 | -21.97141 | 35199 ft | 455 kts | 275° |
| 2026-05-08 15:17 | 52.06938 | -22.07451 | 35206 ft | 457 kts | 275° |
| 2026-05-08 15:17 | 52.07187 | -22.17683 | 35210 ft | 457 kts | 276° |
| 2026-05-08 15:18 | 52.07427 | -22.27988 | 35212 ft | 456 kts | 276° |
| 2026-05-08 15:18 | 52.07660 | -22.38273 | 35219 ft | 456 kts | 276° |
| 2026-05-08 15:19 | 52.07888 | -22.48688 | 35219 ft | 456 kts | 276° |
| 2026-05-08 15:19 | 52.08107 | -22.59197 | 35219 ft | 456 kts | 276° |
| 2026-05-08 15:20 | 52.08308 | -22.69266 | 35222 ft | 457 kts | 276° |
| 2026-05-08 15:20 | 52.08508 | -22.79762 | 35228 ft | 457 kts | 276° |
| 2026-05-08 15:21 | 52.08699 | -22.90138 | 35225 ft | 457 kts | 276° |
| 2026-05-08 15:21 | 52.08877 | -23.00404 | 35232 ft | 458 kts | 276° |
| 2026-05-08 15:22 | 52.09052 | -23.10958 | 35236 ft | 458 kts | 277° |
| 2026-05-08 15:22 | 52.09214 | -23.21345 | 35233 ft | 458 kts | 277° |
| 2026-05-08 15:23 | 52.09365 | -23.31620 | 35242 ft | 457 kts | 277° |
| 2026-05-08 15:23 | 52.09507 | -23.41893 | 35243 ft | 457 kts | 277° |
| 2026-05-08 15:24 | 52.09642 | -23.52228 | 35241 ft | 458 kts | 277° |
| 2026-05-08 15:24 | 52.09765 | -23.62500 | 35245 ft | 459 kts | 277° |
| 2026-05-08 15:25 | 52.09882 | -23.72860 | 35252 ft | 459 kts | 277° |
| 2026-05-08 15:25 | 52.09989 | -23.83231 | 35254 ft | 459 kts | 277° |
| 2026-05-08 15:26 | 52.10085 | -23.93504 | 35254 ft | 457 kts | 277° |
| 2026-05-08 15:26 | 52.10176 | -24.03794 | 35264 ft | 458 kts | 277° |
| 2026-05-08 15:27 | 52.10255 | -24.14088 | 35266 ft | 458 kts | 277° |
| 2026-05-08 15:27 | 52.10325 | -24.24474 | 35267 ft | 459 kts | 278° |
| 2026-05-08 15:28 | 52.10386 | -24.34779 | 35286 ft | 458 kts | 278° |
| 2026-05-08 15:28 | 52.10439 | -24.45098 | 35298 ft | 457 kts | 278° |
| 2026-05-08 15:29 | 52.10480 | -24.55358 | 35291 ft | 456 kts | 279° |
| 2026-05-08 15:29 | 52.10516 | -24.65628 | 35283 ft | 455 kts | 278° |
| 2026-05-08 15:30 | 52.10543 | -24.75903 | 35285 ft | 458 kts | 278° |
| 2026-05-08 15:30 | 52.10560 | -24.86210 | 35300 ft | 457 kts | 279° |
| 2026-05-08 15:31 | 52.10567 | -24.96496 | 35295 ft | 456 kts | 279° |
| 2026-05-08 15:31 | 52.10567 | -25.06763 | 35316 ft | 457 kts | 279° |
| 2026-05-08 15:32 | 52.10554 | -25.17007 | 35317 ft | 454 kts | 279° |
| 2026-05-08 15:32 | 52.10537 | -25.27236 | 35318 ft | 455 kts | 279° |
| 2026-05-08 15:33 | 52.10511 | -25.37486 | 35327 ft | 453 kts | 279° |
| 2026-05-08 15:33 | 52.10474 | -25.47687 | 35319 ft | 454 kts | 279° |
| 2026-05-08 15:34 | 52.10429 | -25.57894 | 35345 ft | 452 kts | 279° |
| 2026-05-08 15:34 | 52.10373 | -25.68092 | 35341 ft | 451 kts | 279° |
| 2026-05-08 15:35 | 52.10312 | -25.78301 | 35340 ft | 451 kts | 279° |
| 2026-05-08 15:35 | 52.10239 | -25.88569 | 35336 ft | 450 kts | 279° |
| 2026-05-08 15:36 | 52.10172 | -25.97027 | 35332 ft | 448 kts | 279° |
| 2026-05-08 15:36 | 52.10120 | -26.03313 | 35167 ft | 448 kts | 279° |
| 2026-05-08 15:36 | 52.10075 | -26.08417 | 35243 ft | 448 kts | 279° |
| 2026-05-08 15:37 | 52.09979 | -26.18729 | 35311 ft | 449 kts | 279° |
| 2026-05-08 15:37 | 52.09873 | -26.28887 | 35329 ft | 448 kts | 279° |
| 2026-05-08 15:38 | 52.09758 | -26.39036 | 35329 ft | 449 kts | 279° |
| 2026-05-08 15:38 | 52.09634 | -26.49153 | 35359 ft | 448 kts | 279° |
| 2026-05-08 15:39 | 52.09501 | -26.59267 | 35367 ft | 446 kts | 279° |
| 2026-05-08 15:39 | 52.09364 | -26.69197 | 35350 ft | 447 kts | 278° |
| 2026-05-08 15:40 | 52.09217 | -26.79299 | 35364 ft | 449 kts | 278° |
| 2026-05-08 15:40 | 52.09062 | -26.89246 | 35367 ft | 449 kts | 277° |
| 2026-05-08 15:41 | 52.08892 | -26.99428 | 35359 ft | 447 kts | 278° |
| 2026-05-08 15:41 | 52.08720 | -27.09440 | 35356 ft | 446 kts | 278° |
| 2026-05-08 15:42 | 52.08539 | -27.19522 | 35357 ft | 447 kts | 277° |
| 2026-05-08 15:42 | 52.08345 | -27.29665 | 35359 ft | 446 kts | 277° |
| 2026-05-08 15:43 | 52.08145 | -27.39716 | 35359 ft | 447 kts | 278° |
| 2026-05-08 15:43 | 52.07934 | -27.49934 | 35362 ft | 447 kts | 277° |
| 2026-05-08 15:44 | 52.07719 | -27.59970 | 35366 ft | 446 kts | 277° |
| 2026-05-08 15:44 | 52.07492 | -27.70030 | 35367 ft | 447 kts | 276° |
| 2026-05-08 15:45 | 52.07260 | -27.79962 | 35368 ft | 448 kts | 276° |
| 2026-05-08 15:45 | 52.07018 | -27.90053 | 35374 ft | 447 kts | 276° |
| 2026-05-08 15:46 | 52.06761 | -28.00349 | 35388 ft | 447 kts | 276° |
| 2026-05-08 15:46 | 52.06502 | -28.10336 | 35399 ft | 447 kts | 276° |
| 2026-05-08 15:47 | 52.06232 | -28.20389 | 35396 ft | 445 kts | 276° |
| 2026-05-08 15:47 | 52.05956 | -28.30458 | 35406 ft | 445 kts | 276° |
| 2026-05-08 15:48 | 52.05521 | -28.45679 | 35405 ft | 444 kts | 276° |
| 2026-05-08 15:49 | 52.05219 | -28.55810 | 35405 ft | 443 kts | 276° |
| 2026-05-08 15:49 | 52.04913 | -28.65815 | 35402 ft | 443 kts | 275° |
| 2026-05-08 15:50 | 52.04599 | -28.75872 | 35399 ft | 442 kts | 275° |
| 2026-05-08 15:50 | 52.04275 | -28.85884 | 35402 ft | 443 kts | 275° |
| 2026-05-08 15:51 | 52.03943 | -28.95933 | 35404 ft | 443 kts | 275° |
| 2026-05-08 15:51 | 52.03603 | -29.05956 | 35400 ft | 443 kts | 275° |
| 2026-05-08 15:52 | 52.03245 | -29.16157 | 35400 ft | 442 kts | 275° |
| 2026-05-08 15:52 | 52.02893 | -29.26044 | 35404 ft | 442 kts | 275° |
| 2026-05-08 15:53 | 52.02539 | -29.35738 | 35400 ft | 441 kts | 275° |